RPLC/CRK METAR and TAF weather

Enter ICAO airport designator
Station Type Date Time Source
RPLC METAR 2021/03/07 23:00 UTC NOAA

RPLC 072300Z 34002KT 8000 FEW020 SCT300 24/19 Q1016 NOSIG RMK A3000


Station Type Date Time Source
RPLC Decoded METAR 2021/03/07 23:00 UTC NOAA

Clarkfield Pampanga International Airport, Philippines (RPLC) 15-11N 120-33E
Mar 07, 2021 - 06:00 PM EST / 2021.03.07 2300 UTC
Wind: from the NNW (340 degrees) at 2 MPH (2 KT):0
Visibility: 4 mile(s):0
Sky conditions: partly cloudy
Temperature: 75 F (24 C)
Dew Point: 66 F (19 C)
Relative Humidity: 73%
Pressure (altimeter): 30.00 in. Hg (1016 hPa)
ob: RPLC 072300Z 34002KT 8000 FEW020 SCT300 24/19 Q1016 NOSIG RMK A3000
cycle: 23

Station Type Date Time Source
RPLC TAF 2021/03/07 18:00 UTC NOAA

TAF RPLC 071700Z 0718/0824 09006KT 9999 FEW020 BKN300 TX33/0806Z TN24/0722Z
TEMPO 0718/0724 35006KT SCT020 BKN300

Example: see airport list